sensor_id;sensor_type;location;lat;lon;timestamp;P1;durP1;ratioP1;P2;durP2;ratioP2
20038;SDS011;21737;42.868;25.320;2023-04-15T00:02:19;4.97;;;1.60;;
20038;SDS011;21737;42.868;25.320;2023-04-15T00:05:21;6.50;;;1.63;;
20038;SDS011;21737;42.868;25.320;2023-04-15T00:08:23;3.43;;;1.83;;
20038;SDS011;21737;42.868;25.320;2023-04-15T00:11:24;2.33;;;1.30;;
20038;SDS011;21737;42.868;25.320;2023-04-15T00:14:26;3.30;;;1.37;;
20038;SDS011;21737;42.868;25.320;2023-04-15T00:17:28;4.07;;;1.30;;
20038;SDS011;21737;42.868;25.320;2023-04-15T00:20:30;4.20;;;1.50;;
20038;SDS011;21737;42.868;25.320;2023-04-15T00:23:32;1.70;;;1.27;;
20038;SDS011;21737;42.868;25.320;2023-04-15T00:26:33;4.97;;;1.77;;
20038;SDS011;21737;42.868;25.320;2023-04-15T00:29:36;6.07;;;1.70;;
20038;SDS011;21737;42.868;25.320;2023-04-15T00:32:37;3.53;;;1.70;;
20038;SDS011;21737;42.868;25.320;2023-04-15T00:35:40;4.87;;;2.00;;
20038;SDS011;21737;42.868;25.320;2023-04-15T00:38:42;2.63;;;1.60;;
20038;SDS011;21737;42.868;25.320;2023-04-15T00:41:44;5.27;;;1.63;;
20038;SDS011;21737;42.868;25.320;2023-04-15T00:44:46;5.10;;;2.37;;
20038;SDS011;21737;42.868;25.320;2023-04-15T00:47:48;5.40;;;2.53;;
20038;SDS011;21737;42.868;25.320;2023-04-15T00:50:50;5.23;;;1.97;;
20038;SDS011;21737;42.868;25.320;2023-04-15T00:53:52;2.47;;;1.50;;
20038;SDS011;21737;42.868;25.320;2023-04-15T00:56:54;3.80;;;1.87;;
20038;SDS011;21737;42.868;25.320;2023-04-15T00:59:55;3.33;;;1.30;;
20038;SDS011;21737;42.868;25.320;2023-04-15T01:02:57;6.63;;;1.93;;
20038;SDS011;21737;42.868;25.320;2023-04-15T01:05:59;4.90;;;1.50;;
20038;SDS011;21737;42.868;25.320;2023-04-15T01:09:04;4.60;;;1.70;;
20038;SDS011;21737;42.868;25.320;2023-04-15T01:12:06;3.33;;;1.60;;
20038;SDS011;21737;42.868;25.320;2023-04-15T01:15:10;7.10;;;1.83;;
20038;SDS011;21737;42.868;25.320;2023-04-15T01:18:12;4.37;;;1.60;;
20038;SDS011;21737;42.868;25.320;2023-04-15T01:21:14;9.43;;;2.20;;
20038;SDS011;21737;42.868;25.320;2023-04-15T01:24:17;3.73;;;1.60;;
20038;SDS011;21737;42.868;25.320;2023-04-15T01:27:19;5.13;;;1.50;;
20038;SDS011;21737;42.868;25.320;2023-04-15T01:30:21;6.83;;;2.07;;
20038;SDS011;21737;42.868;25.320;2023-04-15T01:33:22;4.63;;;1.90;;
20038;SDS011;21737;42.868;25.320;2023-04-15T01:36:24;5.10;;;1.80;;
20038;SDS011;21737;42.868;25.320;2023-04-15T01:39:27;3.03;;;1.57;;
20038;SDS011;21737;42.868;25.320;2023-04-15T01:42:31;5.90;;;1.90;;
20038;SDS011;21737;42.868;25.320;2023-04-15T01:45:33;7.77;;;1.90;;
20038;SDS011;21737;42.868;25.320;2023-04-15T01:48:37;5.20;;;2.30;;
20038;SDS011;21737;42.868;25.320;2023-04-15T01:51:39;7.17;;;1.90;;
20038;SDS011;21737;42.868;25.320;2023-04-15T01:54:41;7.83;;;2.07;;
20038;SDS011;21737;42.868;25.320;2023-04-15T01:57:42;5.60;;;2.47;;
20038;SDS011;21737;42.868;25.320;2023-04-15T02:00:44;8.47;;;2.30;;
20038;SDS011;21737;42.868;25.320;2023-04-15T02:03:46;4.87;;;2.30;;
20038;SDS011;21737;42.868;25.320;2023-04-15T02:06:49;5.47;;;1.93;;
20038;SDS011;21737;42.868;25.320;2023-04-15T02:09:50;5.43;;;2.00;;
20038;SDS011;21737;42.868;25.320;2023-04-15T02:12:52;4.57;;;2.10;;
20038;SDS011;21737;42.868;25.320;2023-04-15T02:15:55;6.03;;;2.10;;
20038;SDS011;21737;42.868;25.320;2023-04-15T02:18:58;5.23;;;2.00;;
20038;SDS011;21737;42.868;25.320;2023-04-15T02:22:00;7.67;;;2.50;;
20038;SDS011;21737;42.868;25.320;2023-04-15T02:25:03;4.60;;;2.20;;
20038;SDS011;21737;42.868;25.320;2023-04-15T02:28:05;5.23;;;3.13;;
20038;SDS011;21737;42.868;25.320;2023-04-15T02:31:07;9.27;;;2.67;;
20038;SDS011;21737;42.868;25.320;2023-04-15T02:34:10;9.80;;;3.20;;
20038;SDS011;21737;42.868;25.320;2023-04-15T02:37:12;14.07;;;4.93;;
20038;SDS011;21737;42.868;25.320;2023-04-15T02:40:13;9.20;;;4.50;;
20038;SDS011;21737;42.868;25.320;2023-04-15T02:43:16;9.27;;;4.80;;
20038;SDS011;21737;42.868;25.320;2023-04-15T02:46:17;10.30;;;4.63;;
20038;SDS011;21737;42.868;25.320;2023-04-15T02:49:19;5.77;;;3.57;;
20038;SDS011;21737;42.868;25.320;2023-04-15T02:52:22;7.90;;;3.80;;
20038;SDS011;21737;42.868;25.320;2023-04-15T02:55:24;10.03;;;4.60;;
20038;SDS011;21737;42.868;25.320;2023-04-15T02:58:26;11.87;;;3.50;;
20038;SDS011;21737;42.868;25.320;2023-04-15T03:01:28;8.60;;;3.27;;
20038;SDS011;21737;42.868;25.320;2023-04-15T03:04:30;6.83;;;3.47;;
20038;SDS011;21737;42.868;25.320;2023-04-15T03:07:31;5.27;;;2.93;;
20038;SDS011;21737;42.868;25.320;2023-04-15T03:10:34;5.87;;;2.70;;
20038;SDS011;21737;42.868;25.320;2023-04-15T03:13:36;13.60;;;2.80;;
20038;SDS011;21737;42.868;25.320;2023-04-15T03:16:47;9.27;;;3.93;;
20038;SDS011;21737;42.868;25.320;2023-04-15T03:19:51;8.33;;;4.13;;
20038;SDS011;21737;42.868;25.320;2023-04-15T03:22:53;5.23;;;3.43;;
20038;SDS011;21737;42.868;25.320;2023-04-15T03:25:57;18.27;;;11.13;;
20038;SDS011;21737;42.868;25.320;2023-04-15T03:29:02;13.33;;;7.10;;
20038;SDS011;21737;42.868;25.320;2023-04-15T03:32:04;9.80;;;4.80;;
20038;SDS011;21737;42.868;25.320;2023-04-15T03:35:08;10.63;;;4.70;;
20038;SDS011;21737;42.868;25.320;2023-04-15T03:38:10;11.30;;;4.60;;
20038;SDS011;21737;42.868;25.320;2023-04-15T03:41:11;13.00;;;6.60;;
20038;SDS011;21737;42.868;25.320;2023-04-15T03:44:13;12.10;;;5.57;;
20038;SDS011;21737;42.868;25.320;2023-04-15T03:47:15;7.10;;;3.20;;
20038;SDS011;21737;42.868;25.320;2023-04-15T03:50:16;8.33;;;3.00;;
20038;SDS011;21737;42.868;25.320;2023-04-15T03:53:20;7.17;;;3.70;;
20038;SDS011;21737;42.868;25.320;2023-04-15T03:56:22;5.40;;;3.60;;
20038;SDS011;21737;42.868;25.320;2023-04-15T03:59:24;7.17;;;3.90;;
20038;SDS011;21737;42.868;25.320;2023-04-15T04:02:25;10.37;;;4.60;;
20038;SDS011;21737;42.868;25.320;2023-04-15T04:05:29;8.67;;;3.90;;
20038;SDS011;21737;42.868;25.320;2023-04-15T04:08:30;10.60;;;3.97;;
20038;SDS011;21737;42.868;25.320;2023-04-15T04:11:32;8.70;;;3.70;;
20038;SDS011;21737;42.868;25.320;2023-04-15T04:14:34;7.50;;;3.93;;
20038;SDS011;21737;42.868;25.320;2023-04-15T04:17:35;6.30;;;3.13;;
20038;SDS011;21737;42.868;25.320;2023-04-15T04:20:37;5.67;;;3.37;;
20038;SDS011;21737;42.868;25.320;2023-04-15T04:23:39;9.40;;;4.10;;
20038;SDS011;21737;42.868;25.320;2023-04-15T04:26:41;9.50;;;3.50;;
20038;SDS011;21737;42.868;25.320;2023-04-15T04:29:42;12.10;;;6.00;;
20038;SDS011;21737;42.868;25.320;2023-04-15T04:32:44;12.70;;;6.07;;
20038;SDS011;21737;42.868;25.320;2023-04-15T04:35:46;13.27;;;4.63;;
20038;SDS011;21737;42.868;25.320;2023-04-15T04:38:48;5.27;;;3.83;;
20038;SDS011;21737;42.868;25.320;2023-04-15T04:41:49;7.90;;;4.17;;
20038;SDS011;21737;42.868;25.320;2023-04-15T04:44:57;6.13;;;3.73;;
20038;SDS011;21737;42.868;25.320;2023-04-15T04:47:58;5.40;;;3.40;;
20038;SDS011;21737;42.868;25.320;2023-04-15T04:51:00;5.80;;;3.67;;
20038;SDS011;21737;42.868;25.320;2023-04-15T04:54:02;11.07;;;4.30;;
20038;SDS011;21737;42.868;25.320;2023-04-15T04:57:04;6.90;;;4.07;;
20038;SDS011;21737;42.868;25.320;2023-04-15T05:00:08;8.10;;;3.90;;
20038;SDS011;21737;42.868;25.320;2023-04-15T05:03:10;8.07;;;4.20;;
20038;SDS011;21737;42.868;25.320;2023-04-15T05:06:12;7.00;;;4.93;;
20038;SDS011;21737;42.868;25.320;2023-04-15T05:09:13;6.83;;;4.50;;
20038;SDS011;21737;42.868;25.320;2023-04-15T05:12:15;9.40;;;4.67;;
20038;SDS011;21737;42.868;25.320;2023-04-15T05:15:18;6.87;;;3.90;;
20038;SDS011;21737;42.868;25.320;2023-04-15T05:18:20;9.17;;;4.40;;
20038;SDS011;21737;42.868;25.320;2023-04-15T05:21:22;8.10;;;4.47;;
20038;SDS011;21737;42.868;25.320;2023-04-15T05:24:24;6.80;;;4.23;;
20038;SDS011;21737;42.868;25.320;2023-04-15T05:27:25;8.20;;;4.07;;
20038;SDS011;21737;42.868;25.320;2023-04-15T05:30:27;7.07;;;3.60;;
20038;SDS011;21737;42.868;25.320;2023-04-15T05:33:29;5.73;;;3.53;;
20038;SDS011;21737;42.868;25.320;2023-04-15T05:36:30;7.47;;;3.23;;
20038;SDS011;21737;42.868;25.320;2023-04-15T05:39:32;9.50;;;4.07;;
20038;SDS011;21737;42.868;25.320;2023-04-15T05:42:34;6.43;;;3.10;;
20038;SDS011;21737;42.868;25.320;2023-04-15T05:45:36;8.33;;;3.83;;
20038;SDS011;21737;42.868;25.320;2023-04-15T05:48:38;7.10;;;2.80;;
20038;SDS011;21737;42.868;25.320;2023-04-15T05:51:40;8.50;;;3.73;;
20038;SDS011;21737;42.868;25.320;2023-04-15T05:54:41;9.80;;;3.57;;
20038;SDS011;21737;42.868;25.320;2023-04-15T05:57:43;5.70;;;2.83;;
20038;SDS011;21737;42.868;25.320;2023-04-15T06:00:45;8.30;;;2.60;;
20038;SDS011;21737;42.868;25.320;2023-04-15T06:03:47;8.80;;;2.97;;
20038;SDS011;21737;42.868;25.320;2023-04-15T06:06:49;9.17;;;3.13;;
20038;SDS011;21737;42.868;25.320;2023-04-15T06:09:51;10.70;;;6.60;;
20038;SDS011;21737;42.868;25.320;2023-04-15T06:12:52;11.13;;;7.20;;
20038;SDS011;21737;42.868;25.320;2023-04-15T06:15:54;11.80;;;10.40;;
20038;SDS011;21737;42.868;25.320;2023-04-15T06:18:56;14.17;;;10.83;;
20038;SDS011;21737;42.868;25.320;2023-04-15T06:21:57;6.63;;;2.60;;
20038;SDS011;21737;42.868;25.320;2023-04-15T06:24:59;7.77;;;3.97;;
20038;SDS011;21737;42.868;25.320;2023-04-15T06:28:01;7.30;;;4.30;;
20038;SDS011;21737;42.868;25.320;2023-04-15T06:31:02;6.10;;;3.40;;
20038;SDS011;21737;42.868;25.320;2023-04-15T06:34:04;6.43;;;4.40;;
20038;SDS011;21737;42.868;25.320;2023-04-15T06:37:06;9.10;;;4.40;;
20038;SDS011;21737;42.868;25.320;2023-04-15T06:40:10;5.77;;;2.63;;
20038;SDS011;21737;42.868;25.320;2023-04-15T06:43:12;11.50;;;3.23;;
20038;SDS011;21737;42.868;25.320;2023-04-15T06:46:14;6.77;;;4.47;;
20038;SDS011;21737;42.868;25.320;2023-04-15T06:49:16;4.47;;;2.90;;
20038;SDS011;21737;42.868;25.320;2023-04-15T06:52:18;5.87;;;2.43;;
20038;SDS011;21737;42.868;25.320;2023-04-15T06:55:19;4.13;;;2.33;;
20038;SDS011;21737;42.868;25.320;2023-04-15T06:58:21;7.82;;;2.63;;
20038;SDS011;21737;42.868;25.320;2023-04-15T07:01:23;5.87;;;2.33;;
20038;SDS011;21737;42.868;25.320;2023-04-15T07:04:25;4.32;;;2.00;;
20038;SDS011;21737;42.868;25.320;2023-04-15T07:07:27;2.85;;;1.75;;
20038;SDS011;21737;42.868;25.320;2023-04-15T07:10:28;6.13;;;1.67;;
20038;SDS011;21737;42.868;25.320;2023-04-15T07:13:30;5.13;;;2.42;;
20038;SDS011;21737;42.868;25.320;2023-04-15T07:16:32;4.05;;;1.85;;
20038;SDS011;21737;42.868;25.320;2023-04-15T07:19:34;5.00;;;2.17;;
20038;SDS011;21737;42.868;25.320;2023-04-15T07:22:36;4.50;;;1.80;;
20038;SDS011;21737;42.868;25.320;2023-04-15T07:25:37;5.45;;;2.25;;
20038;SDS011;21737;42.868;25.320;2023-04-15T07:28:39;2.15;;;1.42;;
20038;SDS011;21737;42.868;25.320;2023-04-15T07:31:41;5.32;;;2.15;;
20038;SDS011;21737;42.868;25.320;2023-04-15T07:34:43;3.80;;;1.55;;
20038;SDS011;21737;42.868;25.320;2023-04-15T07:37:45;3.78;;;1.20;;
20038;SDS011;21737;42.868;25.320;2023-04-15T07:40:47;4.28;;;1.48;;
20038;SDS011;21737;42.868;25.320;2023-04-15T07:43:49;5.68;;;1.85;;
20038;SDS011;21737;42.868;25.320;2023-04-15T07:46:50;2.67;;;1.80;;
20038;SDS011;21737;42.868;25.320;2023-04-15T07:49:52;3.63;;;1.63;;
20038;SDS011;21737;42.868;25.320;2023-04-15T07:52:54;6.43;;;1.65;;
20038;SDS011;21737;42.868;25.320;2023-04-15T07:55:56;4.65;;;1.92;;
20038;SDS011;21737;42.868;25.320;2023-04-15T07:58:58;3.88;;;1.67;;
20038;SDS011;21737;42.868;25.320;2023-04-15T08:01:59;5.10;;;1.60;;
20038;SDS011;21737;42.868;25.320;2023-04-15T08:05:01;3.60;;;2.50;;
20038;SDS011;21737;42.868;25.320;2023-04-15T08:08:04;4.17;;;2.20;;
20038;SDS011;21737;42.868;25.320;2023-04-15T08:11:06;3.53;;;1.40;;
20038;SDS011;21737;42.868;25.320;2023-04-15T08:14:08;3.63;;;1.47;;
20038;SDS011;21737;42.868;25.320;2023-04-15T08:17:09;3.37;;;1.70;;
20038;SDS011;21737;42.868;25.320;2023-04-15T08:20:11;5.33;;;1.83;;
20038;SDS011;21737;42.868;25.320;2023-04-15T08:23:13;2.50;;;1.13;;
20038;SDS011;21737;42.868;25.320;2023-04-15T08:26:15;2.20;;;1.60;;
20038;SDS011;21737;42.868;25.320;2023-04-15T08:29:17;2.87;;;1.60;;
20038;SDS011;21737;42.868;25.320;2023-04-15T08:32:19;4.55;;;1.63;;
20038;SDS011;21737;42.868;25.320;2023-04-15T08:35:21;4.13;;;2.22;;
20038;SDS011;21737;42.868;25.320;2023-04-15T08:38:23;4.25;;;1.67;;
20038;SDS011;21737;42.868;25.320;2023-04-15T08:41:25;4.97;;;1.52;;
20038;SDS011;21737;42.868;25.320;2023-04-15T08:44:32;5.20;;;1.90;;
20038;SDS011;21737;42.868;25.320;2023-04-15T08:47:34;5.68;;;1.92;;
20038;SDS011;21737;42.868;25.320;2023-04-15T08:50:36;1.83;;;1.40;;
20038;SDS011;21737;42.868;25.320;2023-04-15T08:53:38;9.73;;;1.70;;
20038;SDS011;21737;42.868;25.320;2023-04-15T08:56:40;18.93;;;2.87;;
20038;SDS011;21737;42.868;25.320;2023-04-15T08:59:43;12.13;;;2.03;;
20038;SDS011;21737;42.868;25.320;2023-04-15T09:02:45;3.03;;;1.50;;
20038;SDS011;21737;42.868;25.320;2023-04-15T09:05:47;2.67;;;1.20;;
20038;SDS011;21737;42.868;25.320;2023-04-15T09:08:49;4.60;;;1.27;;
20038;SDS011;21737;42.868;25.320;2023-04-15T09:11:52;2.87;;;1.40;;
20038;SDS011;21737;42.868;25.320;2023-04-15T09:14:53;6.03;;;2.07;;
20038;SDS011;21737;42.868;25.320;2023-04-15T09:17:55;6.77;;;2.13;;
20038;SDS011;21737;42.868;25.320;2023-04-15T09:21:07;9.00;;;4.00;;
20038;SDS011;21737;42.868;25.320;2023-04-15T09:24:11;5.77;;;3.10;;
20038;SDS011;21737;42.868;25.320;2023-04-15T09:27:14;2.63;;;1.80;;
20038;SDS011;21737;42.868;25.320;2023-04-15T09:30:16;7.10;;;2.00;;
20038;SDS011;21737;42.868;25.320;2023-04-15T09:33:18;5.53;;;2.50;;
20038;SDS011;21737;42.868;25.320;2023-04-15T09:36:20;6.93;;;2.60;;
20038;SDS011;21737;42.868;25.320;2023-04-15T09:39:22;9.17;;;4.07;;
20038;SDS011;21737;42.868;25.320;2023-04-15T09:42:23;12.60;;;4.07;;
20038;SDS011;21737;42.868;25.320;2023-04-15T09:45:27;13.90;;;6.07;;
20038;SDS011;21737;42.868;25.320;2023-04-15T09:48:47;5.33;;;2.10;;
20038;SDS011;21737;42.868;25.320;2023-04-15T09:52:04;3.37;;;1.80;;
20038;SDS011;21737;42.868;25.320;2023-04-15T09:55:16;5.87;;;2.47;;
20038;SDS011;21737;42.868;25.320;2023-04-15T10:01:20;4.77;;;2.03;;
20038;SDS011;21737;42.868;25.320;2023-04-15T10:04:22;6.07;;;2.30;;
20038;SDS011;21737;42.868;25.320;2023-04-15T10:07:24;5.13;;;2.10;;
20038;SDS011;21737;42.868;25.320;2023-04-15T10:10:26;6.20;;;2.50;;
20038;SDS011;21737;42.868;25.320;2023-04-15T10:13:31;8.63;;;2.73;;
20038;SDS011;21737;42.868;25.320;2023-04-15T10:16:35;4.33;;;2.67;;
20038;SDS011;21737;42.868;25.320;2023-04-15T10:19:40;3.77;;;2.80;;
20038;SDS011;21737;42.868;25.320;2023-04-15T10:22:41;5.77;;;4.80;;
20038;SDS011;21737;42.868;25.320;2023-04-15T10:25:45;5.43;;;3.00;;
20038;SDS011;21737;42.868;25.320;2023-04-15T10:28:47;3.43;;;2.60;;
20038;SDS011;21737;42.868;25.320;2023-04-15T10:31:50;4.53;;;1.30;;
20038;SDS011;21737;42.868;25.320;2023-04-15T10:34:52;2.90;;;2.17;;
20038;SDS011;21737;42.868;25.320;2023-04-15T10:37:55;2.80;;;1.03;;
20038;SDS011;21737;42.868;25.320;2023-04-15T10:44:20;3.87;;;1.40;;
20038;SDS011;21737;42.868;25.320;2023-04-15T10:47:22;2.97;;;1.30;;
20038;SDS011;21737;42.868;25.320;2023-04-15T10:50:24;4.43;;;1.43;;
20038;SDS011;21737;42.868;25.320;2023-04-15T10:53:27;2.97;;;1.13;;
20038;SDS011;21737;42.868;25.320;2023-04-15T10:56:29;2.87;;;1.50;;
20038;SDS011;21737;42.868;25.320;2023-04-15T10:59:34;4.67;;;1.57;;
20038;SDS011;21737;42.868;25.320;2023-04-15T11:05:57;2.77;;;1.50;;
20038;SDS011;21737;42.868;25.320;2023-04-15T11:08:58;5.10;;;1.60;;
20038;SDS011;21737;42.868;25.320;2023-04-15T11:12:07;2.47;;;1.33;;
20038;SDS011;21737;42.868;25.320;2023-04-15T11:18:33;4.30;;;1.93;;
20038;SDS011;21737;42.868;25.320;2023-04-15T11:21:34;6.20;;;2.80;;
20038;SDS011;21737;42.868;25.320;2023-04-15T11:24:45;3.37;;;1.80;;
20038;SDS011;21737;42.868;25.320;2023-04-15T11:27:47;11.20;;;3.07;;
20038;SDS011;21737;42.868;25.320;2023-04-15T11:30:50;7.33;;;2.90;;
20038;SDS011;21737;42.868;25.320;2023-04-15T11:33:55;3.00;;;2.40;;
20038;SDS011;21737;42.868;25.320;2023-04-15T11:36:58;6.03;;;2.73;;
20038;SDS011;21737;42.868;25.320;2023-04-15T11:40:01;6.10;;;2.97;;
20038;SDS011;21737;42.868;25.320;2023-04-15T11:43:03;4.80;;;2.80;;
20038;SDS011;21737;42.868;25.320;2023-04-15T11:46:05;4.47;;;3.00;;
20038;SDS011;21737;42.868;25.320;2023-04-15T11:49:07;6.27;;;3.30;;
20038;SDS011;21737;42.868;25.320;2023-04-15T11:52:09;4.67;;;3.00;;
20038;SDS011;21737;42.868;25.320;2023-04-15T11:55:11;5.37;;;3.20;;
20038;SDS011;21737;42.868;25.320;2023-04-15T12:01:17;5.30;;;3.33;;
20038;SDS011;21737;42.868;25.320;2023-04-15T12:04:19;3.67;;;3.37;;
20038;SDS011;21737;42.868;25.320;2023-04-15T12:07:26;3.63;;;3.30;;
20038;SDS011;21737;42.868;25.320;2023-04-15T12:10:30;5.53;;;3.23;;
20038;SDS011;21737;42.868;25.320;2023-04-15T12:13:32;5.73;;;3.00;;
20038;SDS011;21737;42.868;25.320;2023-04-15T12:16:39;4.60;;;2.90;;
20038;SDS011;21737;42.868;25.320;2023-04-15T12:19:54;4.10;;;2.90;;
20038;SDS011;21737;42.868;25.320;2023-04-15T12:23:04;3.80;;;2.77;;
20038;SDS011;21737;42.868;25.320;2023-04-15T12:26:05;6.37;;;2.70;;
20038;SDS011;21737;42.868;25.320;2023-04-15T12:29:08;4.63;;;2.80;;
20038;SDS011;21737;42.868;25.320;2023-04-15T12:32:11;5.43;;;2.67;;
20038;SDS011;21737;42.868;25.320;2023-04-15T12:35:13;5.47;;;2.50;;
20038;SDS011;21737;42.868;25.320;2023-04-15T12:38:15;5.33;;;2.53;;
20038;SDS011;21737;42.868;25.320;2023-04-15T12:41:16;3.93;;;2.60;;
20038;SDS011;21737;42.868;25.320;2023-04-15T12:44:18;3.77;;;2.37;;
20038;SDS011;21737;42.868;25.320;2023-04-15T12:47:20;2.70;;;1.93;;
20038;SDS011;21737;42.868;25.320;2023-04-15T12:50:22;3.73;;;2.27;;
20038;SDS011;21737;42.868;25.320;2023-04-15T12:53:24;3.77;;;1.90;;
20038;SDS011;21737;42.868;25.320;2023-04-15T12:56:26;5.57;;;2.53;;
20038;SDS011;21737;42.868;25.320;2023-04-15T12:59:28;4.33;;;2.20;;
20038;SDS011;21737;42.868;25.320;2023-04-15T13:02:30;5.00;;;2.00;;
20038;SDS011;21737;42.868;25.320;2023-04-15T13:05:32;5.23;;;2.73;;
20038;SDS011;21737;42.868;25.320;2023-04-15T13:08:33;3.00;;;2.23;;
20038;SDS011;21737;42.868;25.320;2023-04-15T13:11:40;4.70;;;2.30;;
20038;SDS011;21737;42.868;25.320;2023-04-15T13:14:42;3.53;;;2.43;;
20038;SDS011;21737;42.868;25.320;2023-04-15T13:17:44;3.33;;;2.40;;
20038;SDS011;21737;42.868;25.320;2023-04-15T13:20:46;4.40;;;2.30;;
20038;SDS011;21737;42.868;25.320;2023-04-15T13:23:48;3.40;;;2.30;;
20038;SDS011;21737;42.868;25.320;2023-04-15T13:26:51;3.50;;;2.43;;
20038;SDS011;21737;42.868;25.320;2023-04-15T13:29:54;3.33;;;2.50;;
20038;SDS011;21737;42.868;25.320;2023-04-15T13:32:56;5.20;;;2.20;;
20038;SDS011;21737;42.868;25.320;2023-04-15T13:35:57;3.43;;;2.40;;
20038;SDS011;21737;42.868;25.320;2023-04-15T13:38:59;5.40;;;2.30;;
20038;SDS011;21737;42.868;25.320;2023-04-15T13:42:01;2.80;;;2.20;;
20038;SDS011;21737;42.868;25.320;2023-04-15T13:45:03;5.40;;;2.30;;
20038;SDS011;21737;42.868;25.320;2023-04-15T13:48:05;6.00;;;2.10;;
20038;SDS011;21737;42.868;25.320;2023-04-15T13:51:07;3.37;;;2.20;;
20038;SDS011;21737;42.868;25.320;2023-04-15T13:54:09;5.37;;;2.27;;
20038;SDS011;21737;42.868;25.320;2023-04-15T13:57:10;5.23;;;2.30;;
20038;SDS011;21737;42.868;25.320;2023-04-15T14:00:12;3.73;;;2.10;;
20038;SDS011;21737;42.868;25.320;2023-04-15T14:03:14;2.83;;;2.10;;
20038;SDS011;21737;42.868;25.320;2023-04-15T14:06:16;4.90;;;2.20;;
20038;SDS011;21737;42.868;25.320;2023-04-15T14:09:17;3.80;;;2.13;;
20038;SDS011;21737;42.868;25.320;2023-04-15T14:12:19;2.70;;;1.77;;
20038;SDS011;21737;42.868;25.320;2023-04-15T14:15:21;4.03;;;1.70;;
20038;SDS011;21737;42.868;25.320;2023-04-15T14:18:23;3.07;;;1.90;;
20038;SDS011;21737;42.868;25.320;2023-04-15T14:21:24;3.77;;;1.97;;
20038;SDS011;21737;42.868;25.320;2023-04-15T14:24:30;7.13;;;2.00;;
20038;SDS011;21737;42.868;25.320;2023-04-15T14:27:32;4.80;;;1.90;;
20038;SDS011;21737;42.868;25.320;2023-04-15T14:30:33;3.60;;;1.70;;
20038;SDS011;21737;42.868;25.320;2023-04-15T14:33:35;3.53;;;1.93;;
20038;SDS011;21737;42.868;25.320;2023-04-15T14:36:37;4.33;;;1.50;;
20038;SDS011;21737;42.868;25.320;2023-04-15T14:39:40;6.87;;;2.23;;
20038;SDS011;21737;42.868;25.320;2023-04-15T14:42:42;5.73;;;2.10;;
20038;SDS011;21737;42.868;25.320;2023-04-15T14:45:44;4.13;;;2.00;;
20038;SDS011;21737;42.868;25.320;2023-04-15T14:48:46;4.50;;;2.00;;
20038;SDS011;21737;42.868;25.320;2023-04-15T14:51:47;2.40;;;1.60;;
20038;SDS011;21737;42.868;25.320;2023-04-15T14:54:49;2.03;;;1.63;;
20038;SDS011;21737;42.868;25.320;2023-04-15T14:57:51;4.83;;;1.67;;
20038;SDS011;21737;42.868;25.320;2023-04-15T15:00:53;4.87;;;2.00;;
20038;SDS011;21737;42.868;25.320;2023-04-15T15:03:54;3.40;;;1.90;;
20038;SDS011;21737;42.868;25.320;2023-04-15T15:06:56;3.87;;;1.63;;
20038;SDS011;21737;42.868;25.320;2023-04-15T15:09:58;5.47;;;2.17;;
20038;SDS011;21737;42.868;25.320;2023-04-15T15:13:01;5.53;;;1.93;;
20038;SDS011;21737;42.868;25.320;2023-04-15T15:16:03;7.00;;;3.10;;
20038;SDS011;21737;42.868;25.320;2023-04-15T15:19:04;5.33;;;2.37;;
20038;SDS011;21737;42.868;25.320;2023-04-15T15:22:07;4.90;;;2.30;;
20038;SDS011;21737;42.868;25.320;2023-04-15T15:25:08;5.80;;;2.20;;
20038;SDS011;21737;42.868;25.320;2023-04-15T15:28:10;7.17;;;2.57;;
20038;SDS011;21737;42.868;25.320;2023-04-15T15:31:12;7.07;;;3.07;;
20038;SDS011;21737;42.868;25.320;2023-04-15T15:34:14;5.27;;;2.70;;
20038;SDS011;21737;42.868;25.320;2023-04-15T15:37:16;5.77;;;2.80;;
20038;SDS011;21737;42.868;25.320;2023-04-15T15:40:18;7.23;;;3.67;;
20038;SDS011;21737;42.868;25.320;2023-04-15T15:43:20;8.97;;;4.63;;
20038;SDS011;21737;42.868;25.320;2023-04-15T15:46:21;7.23;;;3.20;;
20038;SDS011;21737;42.868;25.320;2023-04-15T15:49:25;6.43;;;3.10;;
20038;SDS011;21737;42.868;25.320;2023-04-15T15:52:28;5.07;;;3.17;;
20038;SDS011;21737;42.868;25.320;2023-04-15T15:55:30;7.73;;;3.50;;
20038;SDS011;21737;42.868;25.320;2023-04-15T15:58:32;5.13;;;3.40;;
20038;SDS011;21737;42.868;25.320;2023-04-15T16:01:34;7.20;;;3.03;;
20038;SDS011;21737;42.868;25.320;2023-04-15T16:04:36;9.20;;;3.40;;
20038;SDS011;21737;42.868;25.320;2023-04-15T16:07:38;5.73;;;3.13;;
20038;SDS011;21737;42.868;25.320;2023-04-15T16:10:40;5.40;;;2.90;;
20038;SDS011;21737;42.868;25.320;2023-04-15T16:13:42;8.63;;;3.50;;
20038;SDS011;21737;42.868;25.320;2023-04-15T16:16:44;7.00;;;3.40;;
20038;SDS011;21737;42.868;25.320;2023-04-15T16:19:46;7.50;;;2.70;;
20038;SDS011;21737;42.868;25.320;2023-04-15T16:23:01;8.67;;;4.00;;
20038;SDS011;21737;42.868;25.320;2023-04-15T16:26:24;7.77;;;3.83;;
20038;SDS011;21737;42.868;25.320;2023-04-15T16:29:37;9.03;;;5.27;;
20038;SDS011;21737;42.868;25.320;2023-04-15T16:32:50;11.30;;;5.80;;
20038;SDS011;21737;42.868;25.320;2023-04-15T16:35:58;15.90;;;6.63;;
20038;SDS011;21737;42.868;25.320;2023-04-15T16:39:00;10.00;;;5.60;;
20038;SDS011;21737;42.868;25.320;2023-04-15T16:42:05;10.63;;;5.37;;
20038;SDS011;21737;42.868;25.320;2023-04-15T16:45:25;9.43;;;5.90;;
20038;SDS011;21737;42.868;25.320;2023-04-15T16:48:45;11.67;;;5.93;;
20038;SDS011;21737;42.868;25.320;2023-04-15T16:51:52;11.03;;;6.57;;
20038;SDS011;21737;42.868;25.320;2023-04-15T16:55:07;15.70;;;8.40;;
20038;SDS011;21737;42.868;25.320;2023-04-15T16:58:09;15.87;;;8.80;;
20038;SDS011;21737;42.868;25.320;2023-04-15T17:01:18;17.40;;;9.77;;
20038;SDS011;21737;42.868;25.320;2023-04-15T17:04:45;17.23;;;11.27;;
20038;SDS011;21737;42.868;25.320;2023-04-15T17:07:50;15.67;;;9.73;;
20038;SDS011;21737;42.868;25.320;2023-04-15T17:10:52;19.90;;;11.53;;
20038;SDS011;21737;42.868;25.320;2023-04-15T17:13:55;23.70;;;15.23;;
20038;SDS011;21737;42.868;25.320;2023-04-15T17:17:05;26.20;;;16.73;;
20038;SDS011;21737;42.868;25.320;2023-04-15T17:20:14;22.03;;;13.93;;
20038;SDS011;21737;42.868;25.320;2023-04-15T17:23:21;24.97;;;14.30;;
20038;SDS011;21737;42.868;25.320;2023-04-15T17:26:22;27.47;;;14.63;;
20038;SDS011;21737;42.868;25.320;2023-04-15T17:29:24;23.47;;;14.43;;
20038;SDS011;21737;42.868;25.320;2023-04-15T17:32:26;29.17;;;15.40;;
20038;SDS011;21737;42.868;25.320;2023-04-15T17:35:35;27.00;;;15.33;;
20038;SDS011;21737;42.868;25.320;2023-04-15T17:38:36;30.77;;;15.00;;
20038;SDS011;21737;42.868;25.320;2023-04-15T17:41:38;28.43;;;17.57;;
20038;SDS011;21737;42.868;25.320;2023-04-15T17:44:40;26.53;;;16.53;;
20038;SDS011;21737;42.868;25.320;2023-04-15T17:47:41;23.33;;;14.57;;
20038;SDS011;21737;42.868;25.320;2023-04-15T17:50:43;20.80;;;13.93;;
20038;SDS011;21737;42.868;25.320;2023-04-15T17:53:45;25.80;;;16.07;;
20038;SDS011;21737;42.868;25.320;2023-04-15T17:56:47;23.20;;;16.43;;
20038;SDS011;21737;42.868;25.320;2023-04-15T17:59:49;20.87;;;15.20;;
20038;SDS011;21737;42.868;25.320;2023-04-15T18:02:51;20.43;;;14.13;;
20038;SDS011;21737;42.868;25.320;2023-04-15T18:05:54;19.03;;;13.47;;
20038;SDS011;21737;42.868;25.320;2023-04-15T18:08:55;24.93;;;16.87;;
20038;SDS011;21737;42.868;25.320;2023-04-15T18:11:57;25.83;;;17.23;;
20038;SDS011;21737;42.868;25.320;2023-04-15T18:14:59;23.40;;;15.83;;
20038;SDS011;21737;42.868;25.320;2023-04-15T18:18:01;28.03;;;16.40;;